createdAt,value
2022-11-15T00:02:31.993Z,27.60
2022-11-15T00:05:18.030Z,29.10
2022-11-15T00:08:04.119Z,28.77
2022-11-15T00:11:16.595Z,28.00
2022-11-15T00:14:05.351Z,29.77
2022-11-15T00:16:51.622Z,29.37
2022-11-15T00:19:37.565Z,28.63
2022-11-15T00:22:23.698Z,28.40
2022-11-15T00:25:10.190Z,28.87
2022-11-15T00:28:00.788Z,28.83
2022-11-15T00:30:46.922Z,27.30
2022-11-15T00:33:33.452Z,29.53
2022-11-15T00:36:19.747Z,29.13
2022-11-15T00:39:06.810Z,29.77
2022-11-15T00:41:52.914Z,31.07
2022-11-15T00:44:38.833Z,29.63
2022-11-15T00:47:24.935Z,29.77
2022-11-15T00:50:14.988Z,30.03
2022-11-15T00:53:01.354Z,30.37
2022-11-15T00:55:48.495Z,30.57
2022-11-15T00:58:34.320Z,29.57
2022-11-15T01:01:20.727Z,29.10
2022-11-15T01:04:07.304Z,29.27
2022-11-15T01:06:53.259Z,32.27
2022-11-15T01:09:39.527Z,29.93
2022-11-15T01:12:25.529Z,30.03
2022-11-15T01:15:11.510Z,29.70
2022-11-15T01:17:57.735Z,31.30
2022-11-15T01:20:44.563Z,29.30
2022-11-15T01:23:30.745Z,29.97
2022-11-15T01:26:17.420Z,30.47
2022-11-15T01:29:03.569Z,31.17
2022-11-15T01:31:49.661Z,30.77
2022-11-15T01:34:35.691Z,30.13
2022-11-15T01:37:21.472Z,31.43
2022-11-15T01:40:07.855Z,28.93
2022-11-15T01:42:53.685Z,29.17
2022-11-15T01:45:39.855Z,28.80
2022-11-15T01:48:32.492Z,30.03
2022-11-15T01:51:20.465Z,28.97
2022-11-15T01:54:11.517Z,29.20
2022-11-15T01:57:06.167Z,28.77
2022-11-15T01:59:52.110Z,28.53
2022-11-15T02:02:39.168Z,29.33
2022-11-15T02:05:24.984Z,29.57
2022-11-15T02:08:20.836Z,27.60
2022-11-15T02:11:10.132Z,28.43
2022-11-15T02:13:58.554Z,29.87
2022-11-15T02:17:08.032Z,28.83
2022-11-15T02:20:28.365Z,29.50
2022-11-15T02:23:45.192Z,27.47
2022-11-15T02:26:37.188Z,28.13
2022-11-15T02:29:44.293Z,28.80
2022-11-15T02:32:29.998Z,27.00
2022-11-15T02:35:29.547Z,27.53
2022-11-15T02:38:26.700Z,27.57
2022-11-15T02:41:21.145Z,27.53
2022-11-15T02:44:22.873Z,27.77
2022-11-15T02:47:14.788Z,27.50
2022-11-15T02:50:04.221Z,27.27
2022-11-15T02:52:51.757Z,27.33
2022-11-15T02:55:51.392Z,28.73
2022-11-15T02:58:59.478Z,26.67
2022-11-15T03:02:01.878Z,27.10
2022-11-15T03:05:00.863Z,28.13
2022-11-15T03:08:03.535Z,27.27
2022-11-15T03:11:20.639Z,28.30
2022-11-15T03:14:31.739Z,28.33
2022-11-15T03:17:23.742Z,27.33
2022-11-15T03:20:12.636Z,26.97
2022-11-15T03:23:10.843Z,26.73
2022-11-15T03:26:01.330Z,26.93
2022-11-15T03:29:29.044Z,26.93
2022-11-15T03:32:21.154Z,26.37
2022-11-15T03:35:30.083Z,26.07
2022-11-15T03:38:30.865Z,24.73
2022-11-15T03:41:29.053Z,27.00
2022-11-15T03:44:37.930Z,26.03
2022-11-15T03:47:56.638Z,26.17
2022-11-15T03:50:44.441Z,25.00
2022-11-15T03:53:31.894Z,25.97
2022-11-15T03:56:18.008Z,26.67
2022-11-15T03:59:03.995Z,25.93
2022-11-15T04:01:50.023Z,25.43
2022-11-15T04:04:36.080Z,26.27
2022-11-15T04:07:22.339Z,26.00
2022-11-15T04:10:09.599Z,25.60
2022-11-15T04:12:55.437Z,26.40
2022-11-15T04:15:41.668Z,25.13
2022-11-15T04:18:27.751Z,25.77
2022-11-15T04:21:32.283Z,25.53
2022-11-15T04:24:18.499Z,25.53
2022-11-15T04:27:04.208Z,24.70
2022-11-15T04:29:50.316Z,24.70
2022-11-15T04:32:36.140Z,23.70
2022-11-15T04:35:22.185Z,24.23
2022-11-15T04:38:09.980Z,24.80
2022-11-15T04:40:56.114Z,24.23
2022-11-15T04:43:42.088Z,25.87
2022-11-15T04:46:28.448Z,24.87
2022-11-15T04:49:14.094Z,23.10
2022-11-15T04:51:59.997Z,25.03
2022-11-15T04:54:46.296Z,24.40
2022-11-15T04:57:32.288Z,24.23
2022-11-15T05:00:18.884Z,25.13
2022-11-15T05:03:23.691Z,24.37
2022-11-15T05:06:09.656Z,25.63
2022-11-15T05:08:56.268Z,24.37
2022-11-15T05:11:42.794Z,24.13
2022-11-15T05:14:28.845Z,24.50
2022-11-15T05:17:14.845Z,24.23
2022-11-15T05:20:00.870Z,24.33
2022-11-15T05:22:46.851Z,25.73
2022-11-15T05:25:33.142Z,25.70
2022-11-15T05:28:19.034Z,24.20
2022-11-15T05:31:10.710Z,25.17
2022-11-15T05:33:59.475Z,23.47
2022-11-15T05:36:46.807Z,27.20
2022-11-15T05:39:32.884Z,25.13
2022-11-15T05:42:19.777Z,29.47
2022-11-15T05:45:09.349Z,25.03
2022-11-15T05:47:59.685Z,26.30
2022-11-15T05:50:48.345Z,23.93
2022-11-15T05:53:35.838Z,23.83
2022-11-15T05:56:22.026Z,24.50
2022-11-15T05:59:09.833Z,24.90
2022-11-15T06:01:55.649Z,24.33
2022-11-15T06:04:41.861Z,25.00
2022-11-15T06:07:28.010Z,26.30
2022-11-15T06:10:13.815Z,23.57
2022-11-15T06:13:05.131Z,24.63
2022-11-15T06:15:50.949Z,25.27
2022-11-15T06:18:37.311Z,26.27
2022-11-15T06:21:23.982Z,24.50
2022-11-15T06:24:10.007Z,25.30
2022-11-15T06:26:55.997Z,23.03
2022-11-15T06:29:42.269Z,23.70
2022-11-15T06:32:29.740Z,23.53
2022-11-15T06:35:15.869Z,23.23
2022-11-15T06:38:07.863Z,23.53
2022-11-15T06:40:54.297Z,22.13
2022-11-15T06:43:40.773Z,21.23
2022-11-15T06:46:26.660Z,23.57
2022-11-15T06:49:12.990Z,22.93
2022-11-15T06:51:58.922Z,22.90
2022-11-15T06:54:45.368Z,22.73
2022-11-15T06:57:31.502Z,22.43
2022-11-15T07:00:20.232Z,21.93
2022-11-15T07:03:08.886Z,20.83
2022-11-15T07:06:02.955Z,20.50
2022-11-15T07:08:52.719Z,20.63
2022-11-15T07:11:38.782Z,21.30
2022-11-15T07:14:24.957Z,21.63
2022-11-15T07:17:10.868Z,19.53
2022-11-15T07:19:56.919Z,21.97
2022-11-15T07:22:43.538Z,21.17
2022-11-15T07:25:29.733Z,22.40
2022-11-15T07:28:15.770Z,21.10
2022-11-15T07:31:09.328Z,21.50
2022-11-15T07:33:55.333Z,21.47
2022-11-15T07:36:41.321Z,21.30
2022-11-15T07:39:27.443Z,21.37
2022-11-15T07:42:32.191Z,22.50
2022-11-15T07:45:18.182Z,22.40
2022-11-15T07:48:04.515Z,20.50
2022-11-15T07:50:50.712Z,21.67
2022-11-15T07:53:36.737Z,21.67
2022-11-15T07:56:23.072Z,21.80
2022-11-15T07:59:08.797Z,23.00
2022-11-15T08:01:55.028Z,22.63
2022-11-15T08:04:41.361Z,21.40
2022-11-15T08:07:31.282Z,20.33
2022-11-15T08:10:20.048Z,22.30
2022-11-15T08:13:27.477Z,21.33
2022-11-15T08:16:13.616Z,20.03
2022-11-15T08:18:59.777Z,19.27
2022-11-15T08:21:45.586Z,20.30
2022-11-15T08:24:31.727Z,19.37
2022-11-15T08:27:18.238Z,19.07
2022-11-15T08:30:04.974Z,18.40
2022-11-15T08:32:52.958Z,18.43
2022-11-15T08:35:39.404Z,19.77
2022-11-15T08:38:25.613Z,18.63
2022-11-15T08:41:18.136Z,18.70
2022-11-15T08:44:04.011Z,18.83
2022-11-15T08:46:50.296Z,19.53
2022-11-15T08:49:35.976Z,18.63
2022-11-15T08:52:22.345Z,18.00
2022-11-15T08:55:09.032Z,18.87
2022-11-15T08:57:57.782Z,18.30
2022-11-15T09:00:43.943Z,17.83
2022-11-15T09:03:30.310Z,17.77
2022-11-15T09:06:16.589Z,18.50
2022-11-15T09:09:03.606Z,19.13
2022-11-15T09:11:51.610Z,18.67
2022-11-15T09:14:37.666Z,17.93
2022-11-15T09:17:25.228Z,18.87
2022-11-15T09:20:11.754Z,18.17
2022-11-15T09:23:01.948Z,17.63
2022-11-15T09:25:48.732Z,18.60
2022-11-15T09:28:35.433Z,17.57
2022-11-15T09:31:22.426Z,17.43
2022-11-15T09:34:08.352Z,17.77
2022-11-15T09:36:54.465Z,16.80
2022-11-15T09:39:40.548Z,16.90
2022-11-15T09:43:04.205Z,17.43
2022-11-15T09:46:22.606Z,16.17
2022-11-15T09:49:11.392Z,17.57
2022-11-15T09:51:54.554Z,16.47
2022-11-15T09:54:52.218Z,16.00
2022-11-15T09:57:41.551Z,16.93
2022-11-15T10:00:44.695Z,15.80
2022-11-15T10:03:14.549Z,15.00
2022-11-15T10:05:46.587Z,15.13
2022-11-15T10:08:35.797Z,15.07
2022-11-15T10:14:21.559Z,15.50
2022-11-15T10:16:55.300Z,14.63
2022-11-15T10:19:26.866Z,14.70
2022-11-15T10:22:03.153Z,13.73
2022-11-15T10:24:37.790Z,14.00
2022-11-15T10:27:14.890Z,11.97
2022-11-15T10:29:47.626Z,13.57
2022-11-15T10:32:18.742Z,14.77
2022-11-15T10:34:47.287Z,13.80
2022-11-15T10:37:15.251Z,13.43
2022-11-15T10:39:42.946Z,10.80
2022-11-15T10:42:39.808Z,12.70
2022-11-15T10:45:26.582Z,12.83
2022-11-15T10:47:54.294Z,12.70
2022-11-15T10:50:33.596Z,11.93
2022-11-15T10:53:03.932Z,13.13
2022-11-15T10:55:35.986Z,12.23
2022-11-15T10:58:07.835Z,12.27
2022-11-15T11:00:40.155Z,12.67
2022-11-15T11:03:25.116Z,12.67
2022-11-15T11:06:06.057Z,11.93
2022-11-15T11:08:35.057Z,13.10
2022-11-15T11:11:04.471Z,12.00
2022-11-15T11:13:40.575Z,12.23
2022-11-15T11:16:19.915Z,11.80
2022-11-15T11:19:14.786Z,11.37
2022-11-15T11:22:06.859Z,12.87
2022-11-15T11:24:40.295Z,11.00
2022-11-15T11:27:35.936Z,11.87
2022-11-15T11:30:24.047Z,11.60
2022-11-15T11:33:00.783Z,11.43
2022-11-15T11:35:49.715Z,11.80
2022-11-15T11:38:35.636Z,11.67
2022-11-15T11:41:30.853Z,11.77
2022-11-15T11:44:16.503Z,11.83
2022-11-15T11:47:04.930Z,11.83
2022-11-15T11:49:53.332Z,12.13
2022-11-15T11:52:29.565Z,12.13
2022-11-15T11:55:15.539Z,12.17
2022-11-15T11:58:05.292Z,11.73
2022-11-15T12:00:39.514Z,13.10
2022-11-15T12:03:23.356Z,11.73
2022-11-15T12:06:18.854Z,12.83
2022-11-15T12:08:46.563Z,12.17
2022-11-15T12:11:26.067Z,11.50
2022-11-15T12:13:59.675Z,12.23
2022-11-15T12:16:33.301Z,11.57
2022-11-15T12:19:03.455Z,12.13
2022-11-15T12:22:13.921Z,11.80
2022-11-15T12:25:09.628Z,11.70
2022-11-15T12:27:45.185Z,12.53
2022-11-15T12:30:19.912Z,11.70
2022-11-15T12:32:58.630Z,11.50
2022-11-15T12:35:43.645Z,12.93
2022-11-15T12:38:12.854Z,12.63
2022-11-15T12:41:14.757Z,12.07
2022-11-15T12:43:43.889Z,13.17
2022-11-15T12:46:23.590Z,13.70
2022-11-15T12:48:54.503Z,13.03
2022-11-15T12:51:41.602Z,12.43
2022-11-15T12:54:24.023Z,13.77
2022-11-15T12:57:10.085Z,14.50
2022-11-15T13:00:05.119Z,12.40
2022-11-15T13:02:47.486Z,12.60
2022-11-15T13:05:21.341Z,13.37
2022-11-15T13:07:48.865Z,12.83
2022-11-15T13:10:31.153Z,13.70
2022-11-15T13:13:09.171Z,14.27
2022-11-15T13:15:57.775Z,13.73
2022-11-15T13:18:38.391Z,13.33
2022-11-15T13:21:58.991Z,13.17
2022-11-15T13:24:26.558Z,14.10
2022-11-15T13:26:54.083Z,13.93
2022-11-15T13:29:21.757Z,12.33
2022-11-15T13:31:49.512Z,11.63
2022-11-15T13:37:23.502Z,14.17
2022-11-15T13:39:51.386Z,12.90
2022-11-15T13:42:20.796Z,13.63
2022-11-15T13:45:06.287Z,12.40
2022-11-15T13:47:33.921Z,13.73
2022-11-15T13:50:09.679Z,13.27
2022-11-15T13:52:44.061Z,14.43
2022-11-15T13:55:22.441Z,13.23
2022-11-15T13:58:00.117Z,14.03
2022-11-15T14:00:27.597Z,14.73
2022-11-15T14:02:56.930Z,13.50
2022-11-15T14:05:26.089Z,13.87
2022-11-15T14:08:19.438Z,14.50
2022-11-15T14:10:47.085Z,15.00
2022-11-15T14:13:32.089Z,14.60
2022-11-15T14:16:21.482Z,14.80
2022-11-15T14:18:53.967Z,14.50
2022-11-15T14:21:22.016Z,14.50
2022-11-15T14:23:50.105Z,15.33
2022-11-15T14:26:35.838Z,14.67
2022-11-15T14:29:29.489Z,15.67
2022-11-15T14:32:15.347Z,14.37
2022-11-15T14:34:43.083Z,15.53
2022-11-15T14:37:36.034Z,14.60
2022-11-15T14:40:06.247Z,14.63
2022-11-15T14:42:34.043Z,14.73
2022-11-15T14:45:01.470Z,14.70
2022-11-15T14:47:29.089Z,15.30
2022-11-15T14:49:56.349Z,14.63
2022-11-15T14:52:32.536Z,15.80
2022-11-15T14:55:03.319Z,15.37
2022-11-15T14:57:31.707Z,14.90
2022-11-15T14:59:59.117Z,15.97
2022-11-15T15:02:40.038Z,14.20
2022-11-15T15:05:19.778Z,14.80
2022-11-15T15:07:47.766Z,15.03
2022-11-15T15:10:39.022Z,15.10
2022-11-15T15:13:06.021Z,15.70
2022-11-15T15:15:37.690Z,15.50
2022-11-15T15:18:07.265Z,16.27
2022-11-15T15:23:26.535Z,16.43
2022-11-15T15:25:54.153Z,15.60
2022-11-15T15:28:21.529Z,15.70
2022-11-15T15:30:50.391Z,16.03
2022-11-15T15:33:18.034Z,16.57
2022-11-15T15:35:45.616Z,15.30
2022-11-15T15:38:14.036Z,16.77
2022-11-15T15:40:42.169Z,16.67
2022-11-15T15:43:10.288Z,16.43
2022-11-15T15:45:54.246Z,16.17
2022-11-15T15:48:21.618Z,16.20
2022-11-15T15:50:50.264Z,17.30
2022-11-15T15:53:18.366Z,16.47
2022-11-15T15:55:45.924Z,16.63
2022-11-15T15:58:13.324Z,17.17
2022-11-15T16:00:41.103Z,16.73
2022-11-15T16:03:08.484Z,15.90
2022-11-15T16:05:36.115Z,16.57
2022-11-15T16:08:04.490Z,16.77
2022-11-15T16:10:37.725Z,16.87
2022-11-15T16:13:05.158Z,17.13
2022-11-15T16:15:33.868Z,16.23
2022-11-15T16:18:02.522Z,15.93
2022-11-15T16:20:43.596Z,16.07
2022-11-15T16:23:13.598Z,16.13
2022-11-15T16:25:54.047Z,16.37
2022-11-15T16:28:24.476Z,23.13
2022-11-15T16:31:05.257Z,17.63
2022-11-15T16:33:33.699Z,16.83
2022-11-15T16:36:01.914Z,17.90
2022-11-15T16:38:29.664Z,19.10
2022-11-15T16:40:57.098Z,23.90
2022-11-15T16:43:25.369Z,18.23
2022-11-15T16:45:52.855Z,16.77
2022-11-15T16:48:29.676Z,18.27
2022-11-15T16:50:59.274Z,17.47
2022-11-15T16:53:28.085Z,17.93
2022-11-15T16:55:58.824Z,16.83
2022-11-15T16:58:26.237Z,16.70
2022-11-15T17:00:55.177Z,17.20
2022-11-15T17:03:24.422Z,17.37
2022-11-15T17:05:52.812Z,17.27
2022-11-15T17:08:22.103Z,16.47
2022-11-15T17:10:49.636Z,16.97
2022-11-15T17:13:17.188Z,17.00
2022-11-15T17:15:44.701Z,18.10
2022-11-15T17:18:15.877Z,17.20
2022-11-15T17:20:44.160Z,17.13
2022-11-15T17:23:15.185Z,16.67
2022-11-15T17:25:43.202Z,18.00
2022-11-15T17:28:11.006Z,15.60
2022-11-15T17:30:41.936Z,18.10
2022-11-15T17:33:09.421Z,18.63
2022-11-15T17:35:36.805Z,17.70
2022-11-15T17:38:04.356Z,16.67
2022-11-15T17:40:32.873Z,15.03
2022-11-15T17:43:06.841Z,17.53
2022-11-15T17:45:40.164Z,17.33
2022-11-15T17:48:07.543Z,18.37
2022-11-15T17:50:34.875Z,15.57
2022-11-15T17:53:02.318Z,17.10
2022-11-15T17:55:29.738Z,16.70
2022-11-15T17:57:57.078Z,17.53
2022-11-15T18:00:24.481Z,28.97
2022-11-15T18:02:51.805Z,19.07
2022-11-15T18:05:19.146Z,17.27
2022-11-15T18:07:46.489Z,16.40
2022-11-15T18:10:13.916Z,16.77
2022-11-15T18:12:41.277Z,16.73
2022-11-15T18:15:09.110Z,15.23
2022-11-15T18:17:37.363Z,15.53
2022-11-15T18:20:05.390Z,16.63
2022-11-15T18:22:32.811Z,15.70
2022-11-15T18:25:00.133Z,16.17
2022-11-15T18:27:28.661Z,16.47
2022-11-15T18:29:55.968Z,15.83
2022-11-15T18:32:23.378Z,15.43
2022-11-15T18:34:50.762Z,15.53
2022-11-15T18:37:18.121Z,15.10
2022-11-15T18:39:49.663Z,15.07
2022-11-15T18:42:19.978Z,16.03
2022-11-15T18:44:47.377Z,16.43
2022-11-15T18:47:14.807Z,14.97
2022-11-15T18:49:42.276Z,15.83
2022-11-15T18:52:09.693Z,15.20
2022-11-15T18:54:37.078Z,15.97
2022-11-15T18:57:04.678Z,16.00
2022-11-15T18:59:32.167Z,16.07
2022-11-15T19:01:59.760Z,22.13
2022-11-15T19:04:27.355Z,17.57
2022-11-15T19:06:54.863Z,14.90
2022-11-15T19:09:22.340Z,15.10
2022-11-15T19:11:51.586Z,14.63
2022-11-15T19:14:24.203Z,14.63
2022-11-15T19:16:52.674Z,15.20
2022-11-15T19:19:22.962Z,13.67
2022-11-15T19:21:50.880Z,14.43
2022-11-15T19:24:18.279Z,14.27
2022-11-15T19:26:46.458Z,14.57
2022-11-15T19:29:18.220Z,13.17
2022-11-15T19:31:47.631Z,13.83
2022-11-15T19:34:15.036Z,13.10
2022-11-15T19:36:44.300Z,13.03
2022-11-15T19:39:13.959Z,13.67
2022-11-15T19:41:43.324Z,12.87
2022-11-15T19:44:12.477Z,12.90
2022-11-15T19:46:40.675Z,13.00
2022-11-15T19:49:10.659Z,12.97
2022-11-15T19:51:39.018Z,12.50
2022-11-15T19:54:08.850Z,12.83
2022-11-15T19:56:36.924Z,11.43
2022-11-15T19:59:05.277Z,12.17
2022-11-15T20:01:39.110Z,12.17
2022-11-15T20:04:08.097Z,12.03
2022-11-15T20:06:41.886Z,11.33
2022-11-15T20:09:13.366Z,11.60
2022-11-15T20:11:40.986Z,10.97
2022-11-15T20:14:09.966Z,11.70
2022-11-15T20:16:37.641Z,11.67
2022-11-15T20:19:05.267Z,11.37
2022-11-15T20:21:32.766Z,12.73
2022-11-15T20:24:00.446Z,11.40
2022-11-15T20:26:29.074Z,12.30
2022-11-15T20:29:01.065Z,11.43
2022-11-15T20:31:29.646Z,12.30
2022-11-15T20:33:56.983Z,12.40
2022-11-15T20:36:24.372Z,12.30
2022-11-15T20:38:55.889Z,12.47
2022-11-15T20:41:23.279Z,11.67
2022-11-15T20:43:50.959Z,12.53
2022-11-15T20:46:19.808Z,12.37
2022-11-15T20:48:47.102Z,11.83
2022-11-15T20:51:18.683Z,12.00
2022-11-15T20:53:47.392Z,11.80
2022-11-15T20:56:17.980Z,12.00
2022-11-15T20:58:46.301Z,12.03
2022-11-15T21:01:15.595Z,11.87
2022-11-15T21:03:43.742Z,11.33
2022-11-15T21:06:11.579Z,12.37
2022-11-15T21:08:57.547Z,12.17
2022-11-15T21:11:44.289Z,11.70
2022-11-15T21:14:12.079Z,11.17
2022-11-15T21:16:39.480Z,11.00
2022-11-15T21:19:07.266Z,10.80
2022-11-15T21:21:36.119Z,12.77
2022-11-15T21:24:05.101Z,11.67
2022-11-15T21:26:33.207Z,11.53
2022-11-15T21:29:00.672Z,11.30
2022-11-15T21:31:28.299Z,11.47
2022-11-15T21:33:55.672Z,11.00
2022-11-15T21:36:25.047Z,11.40
2022-11-15T21:39:11.420Z,11.10
2022-11-15T21:41:38.885Z,11.10
2022-11-15T21:44:06.894Z,9.57
2022-11-15T21:46:35.234Z,10.53
2022-11-15T21:49:03.419Z,10.90
2022-11-15T21:51:31.548Z,10.67
2022-11-15T21:53:59.472Z,11.40
2022-11-15T21:56:30.090Z,10.73
2022-11-15T21:58:57.565Z,10.47
2022-11-15T22:01:44.924Z,10.10
2022-11-15T22:04:13.167Z,10.47
2022-11-15T22:06:40.549Z,10.97
2022-11-15T22:09:08.212Z,10.17
2022-11-15T22:11:36.013Z,10.13
2022-11-15T22:14:03.854Z,9.80
2022-11-15T22:16:31.914Z,10.10
2022-11-15T22:19:00.829Z,10.20
2022-11-15T22:21:28.234Z,10.47
2022-11-15T22:23:55.733Z,10.40
2022-11-15T22:26:24.051Z,9.83
2022-11-15T22:28:51.908Z,9.77
2022-11-15T22:31:19.369Z,9.83
2022-11-15T22:33:47.268Z,9.47
2022-11-15T22:36:14.570Z,10.03
2022-11-15T22:38:42.198Z,9.77
2022-11-15T22:41:09.604Z,9.40
2022-11-15T22:43:37.416Z,9.37
2022-11-15T22:46:05.244Z,8.83
2022-11-15T22:48:38.702Z,9.90
2022-11-15T22:51:07.582Z,10.60
2022-11-15T22:53:35.479Z,9.10
2022-11-15T22:56:04.895Z,9.47
2022-11-15T22:58:33.652Z,9.37
2022-11-15T23:01:03.889Z,9.10
2022-11-15T23:03:32.636Z,9.27
2022-11-15T23:06:07.618Z,8.73
2022-11-15T23:08:35.555Z,8.50
2022-11-15T23:11:34.086Z,8.53
2022-11-15T23:14:01.566Z,8.80
2022-11-15T23:16:34.723Z,8.67
2022-11-15T23:19:08.328Z,9.13
2022-11-15T23:21:57.108Z,8.57
2022-11-15T23:24:24.925Z,9.20
2022-11-15T23:26:55.212Z,7.60
2022-11-15T23:29:25.192Z,7.87
2022-11-15T23:32:12.506Z,7.77
2022-11-15T23:34:42.315Z,8.50
2022-11-15T23:37:13.336Z,8.63
2022-11-15T23:39:41.206Z,9.73
2022-11-15T23:42:09.585Z,8.13
2022-11-15T23:44:37.628Z,8.40
2022-11-15T23:47:05.098Z,8.70
2022-11-15T23:49:32.731Z,8.60
2022-11-15T23:52:00.113Z,8.40
2022-11-15T23:54:27.750Z,8.20
2022-11-15T23:56:55.067Z,8.77
2022-11-15T23:59:22.443Z,7.93
